sensor_id;sensor_type;location;lat;lon;timestamp;P1;durP1;ratioP1;P2;durP2;ratioP2
27357;SDS011;14831;50.474;7.616;2024-01-25T00:02:47;30.3;;;6.1;;
27357;SDS011;14831;50.474;7.616;2024-01-25T00:07:48;30.3;;;6.1;;
27357;SDS011;14831;50.474;7.616;2024-01-25T00:12:47;30.3;;;6.1;;
27357;SDS011;14831;50.474;7.616;2024-01-25T00:17:47;30.3;;;6.1;;
27357;SDS011;14831;50.474;7.616;2024-01-25T00:22:47;30.3;;;6.1;;
27357;SDS011;14831;50.474;7.616;2024-01-25T00:27:47;30.3;;;6.1;;
27357;SDS011;14831;50.474;7.616;2024-01-25T00:32:48;32.1;;;5.8;;
27357;SDS011;14831;50.474;7.616;2024-01-25T00:37:48;32.1;;;5.8;;
27357;SDS011;14831;50.474;7.616;2024-01-25T00:42:48;32.1;;;5.8;;
27357;SDS011;14831;50.474;7.616;2024-01-25T00:47:48;32.1;;;5.8;;
27357;SDS011;14831;50.474;7.616;2024-01-25T00:52:48;32.1;;;5.8;;
27357;SDS011;14831;50.474;7.616;2024-01-25T00:57:48;32.1;;;5.8;;
27357;SDS011;14831;50.474;7.616;2024-01-25T01:02:48;30.2;;;6.0;;
27357;SDS011;14831;50.474;7.616;2024-01-25T01:07:48;30.2;;;6.0;;
27357;SDS011;14831;50.474;7.616;2024-01-25T01:12:47;30.2;;;6.0;;
27357;SDS011;14831;50.474;7.616;2024-01-25T01:17:47;30.2;;;6.0;;
27357;SDS011;14831;50.474;7.616;2024-01-25T01:22:47;30.2;;;6.0;;
27357;SDS011;14831;50.474;7.616;2024-01-25T01:27:47;30.2;;;6.0;;
27357;SDS011;14831;50.474;7.616;2024-01-25T01:32:47;35.7;;;8.2;;
27357;SDS011;14831;50.474;7.616;2024-01-25T01:37:47;35.7;;;8.2;;
27357;SDS011;14831;50.474;7.616;2024-01-25T01:42:50;35.7;;;8.2;;
27357;SDS011;14831;50.474;7.616;2024-01-25T01:47:47;35.7;;;8.2;;
27357;SDS011;14831;50.474;7.616;2024-01-25T01:52:49;35.7;;;8.2;;
27357;SDS011;14831;50.474;7.616;2024-01-25T01:57:47;35.7;;;8.2;;
27357;SDS011;14831;50.474;7.616;2024-01-25T02:02:48;43.2;;;8.6;;
27357;SDS011;14831;50.474;7.616;2024-01-25T02:07:47;43.2;;;8.6;;
27357;SDS011;14831;50.474;7.616;2024-01-25T02:12:47;43.2;;;8.6;;
27357;SDS011;14831;50.474;7.616;2024-01-25T02:17:48;43.2;;;8.6;;
27357;SDS011;14831;50.474;7.616;2024-01-25T02:22:48;43.2;;;8.6;;
27357;SDS011;14831;50.474;7.616;2024-01-25T02:27:47;43.2;;;8.6;;
27357;SDS011;14831;50.474;7.616;2024-01-25T02:32:47;36.9;;;7.6;;
27357;SDS011;14831;50.474;7.616;2024-01-25T02:37:47;36.9;;;7.6;;
27357;SDS011;14831;50.474;7.616;2024-01-25T02:42:47;36.9;;;7.6;;
27357;SDS011;14831;50.474;7.616;2024-01-25T02:47:47;36.9;;;7.6;;
27357;SDS011;14831;50.474;7.616;2024-01-25T02:52:47;36.9;;;7.6;;
27357;SDS011;14831;50.474;7.616;2024-01-25T02:57:47;36.9;;;7.6;;
27357;SDS011;14831;50.474;7.616;2024-01-25T03:02:47;40.8;;;7.8;;
27357;SDS011;14831;50.474;7.616;2024-01-25T03:07:47;40.8;;;7.8;;
27357;SDS011;14831;50.474;7.616;2024-01-25T03:12:47;40.8;;;7.8;;
27357;SDS011;14831;50.474;7.616;2024-01-25T03:17:48;40.8;;;7.8;;
27357;SDS011;14831;50.474;7.616;2024-01-25T03:22:47;40.8;;;7.8;;
27357;SDS011;14831;50.474;7.616;2024-01-25T03:27:47;40.8;;;7.8;;
27357;SDS011;14831;50.474;7.616;2024-01-25T03:32:47;41.2;;;8.5;;
27357;SDS011;14831;50.474;7.616;2024-01-25T03:37:47;41.2;;;8.5;;
27357;SDS011;14831;50.474;7.616;2024-01-25T03:42:47;41.2;;;8.5;;
27357;SDS011;14831;50.474;7.616;2024-01-25T03:47:49;41.2;;;8.5;;
27357;SDS011;14831;50.474;7.616;2024-01-25T03:52:47;41.2;;;8.5;;
27357;SDS011;14831;50.474;7.616;2024-01-25T03:57:47;41.2;;;8.5;;
27357;SDS011;14831;50.474;7.616;2024-01-25T04:02:47;43.0;;;8.8;;
27357;SDS011;14831;50.474;7.616;2024-01-25T04:07:48;43.0;;;8.8;;
27357;SDS011;14831;50.474;7.616;2024-01-25T04:12:47;43.0;;;8.8;;
27357;SDS011;14831;50.474;7.616;2024-01-25T04:17:47;43.0;;;8.8;;
27357;SDS011;14831;50.474;7.616;2024-01-25T04:22:47;43.0;;;8.8;;
27357;SDS011;14831;50.474;7.616;2024-01-25T04:27:47;43.0;;;8.8;;
27357;SDS011;14831;50.474;7.616;2024-01-25T04:32:47;46.4;;;11.0;;
27357;SDS011;14831;50.474;7.616;2024-01-25T04:37:47;46.4;;;11.0;;
27357;SDS011;14831;50.474;7.616;2024-01-25T04:42:47;46.4;;;11.0;;
27357;SDS011;14831;50.474;7.616;2024-01-25T04:47:47;46.4;;;11.0;;
27357;SDS011;14831;50.474;7.616;2024-01-25T04:52:47;46.4;;;11.0;;
27357;SDS011;14831;50.474;7.616;2024-01-25T04:57:48;46.4;;;11.0;;
27357;SDS011;14831;50.474;7.616;2024-01-25T05:02:47;42.8;;;10.8;;
27357;SDS011;14831;50.474;7.616;2024-01-25T05:07:47;42.8;;;10.8;;
27357;SDS011;14831;50.474;7.616;2024-01-25T05:12:47;42.8;;;10.8;;
27357;SDS011;14831;50.474;7.616;2024-01-25T05:17:47;42.8;;;10.8;;
27357;SDS011;14831;50.474;7.616;2024-01-25T05:22:47;42.8;;;10.8;;
27357;SDS011;14831;50.474;7.616;2024-01-25T05:27:47;42.8;;;10.8;;
27357;SDS011;14831;50.474;7.616;2024-01-25T05:32:47;35.3;;;10.3;;
27357;SDS011;14831;50.474;7.616;2024-01-25T05:37:47;35.3;;;10.3;;
27357;SDS011;14831;50.474;7.616;2024-01-25T05:42:47;35.3;;;10.3;;
27357;SDS011;14831;50.474;7.616;2024-01-25T05:47:47;35.3;;;10.3;;
27357;SDS011;14831;50.474;7.616;2024-01-25T05:52:48;35.3;;;10.3;;
27357;SDS011;14831;50.474;7.616;2024-01-25T05:57:47;35.3;;;10.3;;
27357;SDS011;14831;50.474;7.616;2024-01-25T06:02:47;42.9;;;11.3;;
27357;SDS011;14831;50.474;7.616;2024-01-25T06:07:47;42.9;;;11.3;;
27357;SDS011;14831;50.474;7.616;2024-01-25T06:12:47;42.9;;;11.3;;
27357;SDS011;14831;50.474;7.616;2024-01-25T06:17:47;42.9;;;11.3;;
27357;SDS011;14831;50.474;7.616;2024-01-25T06:22:47;42.9;;;11.3;;
27357;SDS011;14831;50.474;7.616;2024-01-25T06:27:47;42.9;;;11.3;;
27357;SDS011;14831;50.474;7.616;2024-01-25T06:32:48;43.9;;;10.7;;
27357;SDS011;14831;50.474;7.616;2024-01-25T06:37:47;43.9;;;10.7;;
27357;SDS011;14831;50.474;7.616;2024-01-25T06:42:47;43.9;;;10.7;;
27357;SDS011;14831;50.474;7.616;2024-01-25T06:47:47;43.9;;;10.7;;
27357;SDS011;14831;50.474;7.616;2024-01-25T06:52:47;43.9;;;10.7;;
27357;SDS011;14831;50.474;7.616;2024-01-25T06:57:48;43.9;;;10.7;;
27357;SDS011;14831;50.474;7.616;2024-01-25T07:02:47;42.2;;;10.8;;
27357;SDS011;14831;50.474;7.616;2024-01-25T07:07:47;42.2;;;10.8;;
27357;SDS011;14831;50.474;7.616;2024-01-25T07:12:47;42.2;;;10.8;;
27357;SDS011;14831;50.474;7.616;2024-01-25T07:17:48;42.2;;;10.8;;
27357;SDS011;14831;50.474;7.616;2024-01-25T07:22:47;42.2;;;10.8;;
27357;SDS011;14831;50.474;7.616;2024-01-25T07:27:48;42.2;;;10.8;;
27357;SDS011;14831;50.474;7.616;2024-01-25T07:32:47;42.0;;;10.8;;
27357;SDS011;14831;50.474;7.616;2024-01-25T07:37:47;42.0;;;10.8;;
27357;SDS011;14831;50.474;7.616;2024-01-25T07:42:47;42.0;;;10.8;;
27357;SDS011;14831;50.474;7.616;2024-01-25T07:47:47;42.0;;;10.8;;
27357;SDS011;14831;50.474;7.616;2024-01-25T07:52:47;42.0;;;10.8;;
27357;SDS011;14831;50.474;7.616;2024-01-25T07:57:50;42.0;;;10.8;;
27357;SDS011;14831;50.474;7.616;2024-01-25T08:02:47;44.5;;;10.2;;
27357;SDS011;14831;50.474;7.616;2024-01-25T08:07:47;44.5;;;10.2;;
27357;SDS011;14831;50.474;7.616;2024-01-25T08:12:47;44.5;;;10.2;;
27357;SDS011;14831;50.474;7.616;2024-01-25T08:17:48;44.5;;;10.2;;
27357;SDS011;14831;50.474;7.616;2024-01-25T08:22:47;44.5;;;10.2;;
27357;SDS011;14831;50.474;7.616;2024-01-25T08:27:47;44.5;;;10.2;;
27357;SDS011;14831;50.474;7.616;2024-01-25T08:32:47;40.8;;;10.1;;
27357;SDS011;14831;50.474;7.616;2024-01-25T08:37:48;40.8;;;10.1;;
27357;SDS011;14831;50.474;7.616;2024-01-25T08:42:47;40.8;;;10.1;;
27357;SDS011;14831;50.474;7.616;2024-01-25T08:47:47;40.8;;;10.1;;
27357;SDS011;14831;50.474;7.616;2024-01-25T08:52:47;40.8;;;10.1;;
27357;SDS011;14831;50.474;7.616;2024-01-25T08:57:47;40.8;;;10.1;;
27357;SDS011;14831;50.474;7.616;2024-01-25T09:02:47;41.7;;;10.8;;
27357;SDS011;14831;50.474;7.616;2024-01-25T09:07:47;41.7;;;10.8;;
27357;SDS011;14831;50.474;7.616;2024-01-25T09:12:47;41.7;;;10.8;;
27357;SDS011;14831;50.474;7.616;2024-01-25T09:17:47;41.7;;;10.8;;
27357;SDS011;14831;50.474;7.616;2024-01-25T09:22:47;41.7;;;10.8;;
27357;SDS011;14831;50.474;7.616;2024-01-25T09:27:47;41.7;;;10.8;;
27357;SDS011;14831;50.474;7.616;2024-01-25T09:32:48;36.2;;;10.8;;
27357;SDS011;14831;50.474;7.616;2024-01-25T09:37:47;36.2;;;10.8;;
27357;SDS011;14831;50.474;7.616;2024-01-25T09:42:48;36.2;;;10.8;;
27357;SDS011;14831;50.474;7.616;2024-01-25T09:47:48;36.2;;;10.8;;
27357;SDS011;14831;50.474;7.616;2024-01-25T09:52:53;36.2;;;10.8;;
27357;SDS011;14831;50.474;7.616;2024-01-25T09:57:49;36.2;;;10.8;;
27357;SDS011;14831;50.474;7.616;2024-01-25T10:02:50;30.0;;;9.0;;
27357;SDS011;14831;50.474;7.616;2024-01-25T10:07:47;30.0;;;9.0;;
27357;SDS011;14831;50.474;7.616;2024-01-25T10:12:47;30.0;;;9.0;;
27357;SDS011;14831;50.474;7.616;2024-01-25T10:17:47;30.0;;;9.0;;
27357;SDS011;14831;50.474;7.616;2024-01-25T10:22:48;30.0;;;9.0;;
27357;SDS011;14831;50.474;7.616;2024-01-25T10:27:47;30.0;;;9.0;;
27357;SDS011;14831;50.474;7.616;2024-01-25T10:32:48;33.3;;;8.4;;
27357;SDS011;14831;50.474;7.616;2024-01-25T10:37:48;33.3;;;8.4;;
27357;SDS011;14831;50.474;7.616;2024-01-25T10:42:48;33.3;;;8.4;;
27357;SDS011;14831;50.474;7.616;2024-01-25T10:47:48;33.3;;;8.4;;
27357;SDS011;14831;50.474;7.616;2024-01-25T10:52:48;33.3;;;8.4;;
27357;SDS011;14831;50.474;7.616;2024-01-25T10:57:47;33.3;;;8.4;;
27357;SDS011;14831;50.474;7.616;2024-01-25T11:02:47;30.2;;;7.6;;
27357;SDS011;14831;50.474;7.616;2024-01-25T11:07:48;30.2;;;7.6;;
27357;SDS011;14831;50.474;7.616;2024-01-25T11:12:49;30.2;;;7.6;;
27357;SDS011;14831;50.474;7.616;2024-01-25T11:17:52;30.2;;;7.6;;
27357;SDS011;14831;50.474;7.616;2024-01-25T11:22:47;30.2;;;7.6;;
27357;SDS011;14831;50.474;7.616;2024-01-25T11:27:48;30.2;;;7.6;;
27357;SDS011;14831;50.474;7.616;2024-01-25T11:32:48;29.3;;;7.6;;
27357;SDS011;14831;50.474;7.616;2024-01-25T11:37:49;29.3;;;7.6;;
27357;SDS011;14831;50.474;7.616;2024-01-25T11:42:49;29.3;;;7.6;;
27357;SDS011;14831;50.474;7.616;2024-01-25T11:47:47;29.3;;;7.6;;
27357;SDS011;14831;50.474;7.616;2024-01-25T11:52:47;29.3;;;7.6;;
27357;SDS011;14831;50.474;7.616;2024-01-25T11:57:47;29.3;;;7.6;;
27357;SDS011;14831;50.474;7.616;2024-01-25T12:02:47;35.6;;;9.5;;
27357;SDS011;14831;50.474;7.616;2024-01-25T12:07:50;35.6;;;9.5;;
27357;SDS011;14831;50.474;7.616;2024-01-25T12:12:48;35.6;;;9.5;;
27357;SDS011;14831;50.474;7.616;2024-01-25T12:17:48;35.6;;;9.5;;
27357;SDS011;14831;50.474;7.616;2024-01-25T12:22:48;35.6;;;9.5;;
27357;SDS011;14831;50.474;7.616;2024-01-25T12:27:48;35.6;;;9.5;;
27357;SDS011;14831;50.474;7.616;2024-01-25T12:32:48;31.2;;;6.8;;
27357;SDS011;14831;50.474;7.616;2024-01-25T12:37:47;31.2;;;6.8;;
27357;SDS011;14831;50.474;7.616;2024-01-25T12:42:47;31.2;;;6.8;;
27357;SDS011;14831;50.474;7.616;2024-01-25T12:47:47;31.2;;;6.8;;
27357;SDS011;14831;50.474;7.616;2024-01-25T12:52:47;31.2;;;6.8;;
27357;SDS011;14831;50.474;7.616;2024-01-25T12:57:47;31.2;;;6.8;;
27357;SDS011;14831;50.474;7.616;2024-01-25T13:02:48;26.6;;;7.0;;
27357;SDS011;14831;50.474;7.616;2024-01-25T13:07:47;26.6;;;7.0;;
27357;SDS011;14831;50.474;7.616;2024-01-25T13:12:47;26.6;;;7.0;;
27357;SDS011;14831;50.474;7.616;2024-01-25T13:17:47;26.6;;;7.0;;
27357;SDS011;14831;50.474;7.616;2024-01-25T13:22:47;26.6;;;7.0;;
27357;SDS011;14831;50.474;7.616;2024-01-25T13:27:47;26.6;;;7.0;;
27357;SDS011;14831;50.474;7.616;2024-01-25T13:32:47;22.9;;;6.0;;
27357;SDS011;14831;50.474;7.616;2024-01-25T13:37:47;22.9;;;6.0;;
27357;SDS011;14831;50.474;7.616;2024-01-25T13:42:47;22.9;;;6.0;;
27357;SDS011;14831;50.474;7.616;2024-01-25T13:47:47;22.9;;;6.0;;
27357;SDS011;14831;50.474;7.616;2024-01-25T13:52:47;22.9;;;6.0;;
27357;SDS011;14831;50.474;7.616;2024-01-25T13:57:47;22.9;;;6.0;;
27357;SDS011;14831;50.474;7.616;2024-01-25T14:02:47;25.2;;;6.8;;
27357;SDS011;14831;50.474;7.616;2024-01-25T14:07:48;25.2;;;6.8;;
27357;SDS011;14831;50.474;7.616;2024-01-25T14:12:50;25.2;;;6.8;;
27357;SDS011;14831;50.474;7.616;2024-01-25T14:17:47;25.2;;;6.8;;
27357;SDS011;14831;50.474;7.616;2024-01-25T14:22:48;25.2;;;6.8;;
27357;SDS011;14831;50.474;7.616;2024-01-25T14:27:47;25.2;;;6.8;;
27357;SDS011;14831;50.474;7.616;2024-01-25T14:32:47;31.4;;;6.6;;
27357;SDS011;14831;50.474;7.616;2024-01-25T14:37:47;31.4;;;6.6;;
27357;SDS011;14831;50.474;7.616;2024-01-25T14:42:48;31.4;;;6.6;;
27357;SDS011;14831;50.474;7.616;2024-01-25T14:47:47;31.4;;;6.6;;
27357;SDS011;14831;50.474;7.616;2024-01-25T14:52:48;31.4;;;6.6;;
27357;SDS011;14831;50.474;7.616;2024-01-25T14:57:47;31.4;;;6.6;;
27357;SDS011;14831;50.474;7.616;2024-01-25T15:02:48;25.6;;;5.8;;
27357;SDS011;14831;50.474;7.616;2024-01-25T15:07:47;25.6;;;5.8;;
27357;SDS011;14831;50.474;7.616;2024-01-25T15:12:47;25.6;;;5.8;;
27357;SDS011;14831;50.474;7.616;2024-01-25T15:17:48;25.6;;;5.8;;
27357;SDS011;14831;50.474;7.616;2024-01-25T15:22:47;25.6;;;5.8;;
27357;SDS011;14831;50.474;7.616;2024-01-25T15:27:47;25.6;;;5.8;;
27357;SDS011;14831;50.474;7.616;2024-01-25T15:32:47;28.2;;;5.2;;
27357;SDS011;14831;50.474;7.616;2024-01-25T15:37:48;28.2;;;5.2;;
27357;SDS011;14831;50.474;7.616;2024-01-25T15:42:48;28.2;;;5.2;;
27357;SDS011;14831;50.474;7.616;2024-01-25T15:47:47;28.2;;;5.2;;
27357;SDS011;14831;50.474;7.616;2024-01-25T15:52:47;28.2;;;5.2;;
27357;SDS011;14831;50.474;7.616;2024-01-25T15:57:47;28.2;;;5.2;;
27357;SDS011;14831;50.474;7.616;2024-01-25T16:02:47;23.4;;;6.2;;
27357;SDS011;14831;50.474;7.616;2024-01-25T16:07:47;23.4;;;6.2;;
27357;SDS011;14831;50.474;7.616;2024-01-25T16:12:47;23.4;;;6.2;;
27357;SDS011;14831;50.474;7.616;2024-01-25T16:17:49;23.4;;;6.2;;
27357;SDS011;14831;50.474;7.616;2024-01-25T16:22:47;23.4;;;6.2;;
27357;SDS011;14831;50.474;7.616;2024-01-25T16:27:47;23.4;;;6.2;;
27357;SDS011;14831;50.474;7.616;2024-01-25T16:32:47;21.3;;;6.5;;
27357;SDS011;14831;50.474;7.616;2024-01-25T16:37:49;21.3;;;6.5;;
27357;SDS011;14831;50.474;7.616;2024-01-25T16:42:47;21.3;;;6.5;;
27357;SDS011;14831;50.474;7.616;2024-01-25T16:47:47;21.3;;;6.5;;
27357;SDS011;14831;50.474;7.616;2024-01-25T16:52:47;21.3;;;6.5;;
27357;SDS011;14831;50.474;7.616;2024-01-25T16:57:47;21.3;;;6.5;;
27357;SDS011;14831;50.474;7.616;2024-01-25T17:02:47;29.3;;;6.2;;
27357;SDS011;14831;50.474;7.616;2024-01-25T17:07:47;29.3;;;6.2;;
27357;SDS011;14831;50.474;7.616;2024-01-25T17:12:47;29.3;;;6.2;;
27357;SDS011;14831;50.474;7.616;2024-01-25T17:17:47;29.3;;;6.2;;
27357;SDS011;14831;50.474;7.616;2024-01-25T17:22:47;29.3;;;6.2;;
27357;SDS011;14831;50.474;7.616;2024-01-25T17:27:47;29.3;;;6.2;;
27357;SDS011;14831;50.474;7.616;2024-01-25T17:32:47;28.2;;;6.2;;
27357;SDS011;14831;50.474;7.616;2024-01-25T17:37:47;28.2;;;6.2;;
27357;SDS011;14831;50.474;7.616;2024-01-25T17:42:47;28.2;;;6.2;;
27357;SDS011;14831;50.474;7.616;2024-01-25T17:47:47;28.2;;;6.2;;
27357;SDS011;14831;50.474;7.616;2024-01-25T17:52:47;28.2;;;6.2;;
27357;SDS011;14831;50.474;7.616;2024-01-25T17:57:47;28.2;;;6.2;;
27357;SDS011;14831;50.474;7.616;2024-01-25T18:02:47;41.7;;;12.1;;
27357;SDS011;14831;50.474;7.616;2024-01-25T18:07:47;41.7;;;12.1;;
27357;SDS011;14831;50.474;7.616;2024-01-25T18:12:47;41.7;;;12.1;;
27357;SDS011;14831;50.474;7.616;2024-01-25T18:17:48;41.7;;;12.1;;
27357;SDS011;14831;50.474;7.616;2024-01-25T18:22:48;41.7;;;12.1;;
27357;SDS011;14831;50.474;7.616;2024-01-25T18:27:47;41.7;;;12.1;;
27357;SDS011;14831;50.474;7.616;2024-01-25T18:32:47;38.2;;;11.3;;
27357;SDS011;14831;50.474;7.616;2024-01-25T18:37:47;38.2;;;11.3;;
27357;SDS011;14831;50.474;7.616;2024-01-25T18:42:47;38.2;;;11.3;;
27357;SDS011;14831;50.474;7.616;2024-01-25T18:47:48;38.2;;;11.3;;
27357;SDS011;14831;50.474;7.616;2024-01-25T18:52:47;38.2;;;11.3;;
27357;SDS011;14831;50.474;7.616;2024-01-25T18:57:48;38.2;;;11.3;;
27357;SDS011;14831;50.474;7.616;2024-01-25T19:02:49;35.7;;;10.2;;
27357;SDS011;14831;50.474;7.616;2024-01-25T19:07:48;35.7;;;10.2;;
27357;SDS011;14831;50.474;7.616;2024-01-25T19:12:47;35.7;;;10.2;;
27357;SDS011;14831;50.474;7.616;2024-01-25T19:17:47;35.7;;;10.2;;
27357;SDS011;14831;50.474;7.616;2024-01-25T19:22:47;35.7;;;10.2;;
27357;SDS011;14831;50.474;7.616;2024-01-25T19:27:47;35.7;;;10.2;;
27357;SDS011;14831;50.474;7.616;2024-01-25T19:32:47;32.9;;;9.9;;
27357;SDS011;14831;50.474;7.616;2024-01-25T19:37:47;32.9;;;9.9;;
27357;SDS011;14831;50.474;7.616;2024-01-25T19:42:48;32.9;;;9.9;;
27357;SDS011;14831;50.474;7.616;2024-01-25T19:47:47;32.9;;;9.9;;
27357;SDS011;14831;50.474;7.616;2024-01-25T19:52:47;32.9;;;9.9;;
27357;SDS011;14831;50.474;7.616;2024-01-25T19:57:48;32.9;;;9.9;;
27357;SDS011;14831;50.474;7.616;2024-01-25T20:02:48;34.7;;;9.5;;
27357;SDS011;14831;50.474;7.616;2024-01-25T20:07:51;34.7;;;9.5;;
27357;SDS011;14831;50.474;7.616;2024-01-25T20:12:47;34.7;;;9.5;;
27357;SDS011;14831;50.474;7.616;2024-01-25T20:17:47;34.7;;;9.5;;
27357;SDS011;14831;50.474;7.616;2024-01-25T20:22:47;34.7;;;9.5;;
27357;SDS011;14831;50.474;7.616;2024-01-25T20:27:48;34.7;;;9.5;;
27357;SDS011;14831;50.474;7.616;2024-01-25T20:32:47;32.1;;;12.3;;
27357;SDS011;14831;50.474;7.616;2024-01-25T20:37:47;32.1;;;12.3;;
27357;SDS011;14831;50.474;7.616;2024-01-25T20:42:48;32.1;;;12.3;;
27357;SDS011;14831;50.474;7.616;2024-01-25T20:47:48;32.1;;;12.3;;
27357;SDS011;14831;50.474;7.616;2024-01-25T20:52:47;32.1;;;12.3;;
27357;SDS011;14831;50.474;7.616;2024-01-25T20:57:47;32.1;;;12.3;;
27357;SDS011;14831;50.474;7.616;2024-01-25T21:02:48;33.0;;;13.5;;
27357;SDS011;14831;50.474;7.616;2024-01-25T21:07:48;33.0;;;13.5;;
27357;SDS011;14831;50.474;7.616;2024-01-25T21:12:48;33.0;;;13.5;;
27357;SDS011;14831;50.474;7.616;2024-01-25T21:17:48;33.0;;;13.5;;
27357;SDS011;14831;50.474;7.616;2024-01-25T21:22:47;33.0;;;13.5;;
27357;SDS011;14831;50.474;7.616;2024-01-25T21:27:47;33.0;;;13.5;;
27357;SDS011;14831;50.474;7.616;2024-01-25T21:32:47;35.4;;;16.0;;
27357;SDS011;14831;50.474;7.616;2024-01-25T21:37:47;35.4;;;16.0;;
27357;SDS011;14831;50.474;7.616;2024-01-25T21:42:47;35.4;;;16.0;;
27357;SDS011;14831;50.474;7.616;2024-01-25T21:47:47;35.4;;;16.0;;
27357;SDS011;14831;50.474;7.616;2024-01-25T21:52:47;35.4;;;16.0;;
27357;SDS011;14831;50.474;7.616;2024-01-25T21:57:47;35.4;;;16.0;;
27357;SDS011;14831;50.474;7.616;2024-01-25T22:02:47;43.9;;;18.7;;
27357;SDS011;14831;50.474;7.616;2024-01-25T22:07:47;43.9;;;18.7;;
27357;SDS011;14831;50.474;7.616;2024-01-25T22:12:50;43.9;;;18.7;;
27357;SDS011;14831;50.474;7.616;2024-01-25T22:17:47;43.9;;;18.7;;
27357;SDS011;14831;50.474;7.616;2024-01-25T22:22:47;43.9;;;18.7;;
27357;SDS011;14831;50.474;7.616;2024-01-25T22:27:47;43.9;;;18.7;;
27357;SDS011;14831;50.474;7.616;2024-01-25T22:32:48;43.6;;;18.1;;
27357;SDS011;14831;50.474;7.616;2024-01-25T22:37:47;43.6;;;18.1;;
27357;SDS011;14831;50.474;7.616;2024-01-25T22:42:47;43.6;;;18.1;;
27357;SDS011;14831;50.474;7.616;2024-01-25T22:47:47;43.6;;;18.1;;
27357;SDS011;14831;50.474;7.616;2024-01-25T22:52:47;43.6;;;18.1;;
27357;SDS011;14831;50.474;7.616;2024-01-25T22:57:47;43.6;;;18.1;;
27357;SDS011;14831;50.474;7.616;2024-01-25T23:02:47;38.0;;;15.2;;
27357;SDS011;14831;50.474;7.616;2024-01-25T23:07:48;38.0;;;15.2;;
27357;SDS011;14831;50.474;7.616;2024-01-25T23:12:48;38.0;;;15.2;;
27357;SDS011;14831;50.474;7.616;2024-01-25T23:17:47;38.0;;;15.2;;
27357;SDS011;14831;50.474;7.616;2024-01-25T23:22:47;38.0;;;15.2;;
27357;SDS011;14831;50.474;7.616;2024-01-25T23:27:48;38.0;;;15.2;;
27357;SDS011;14831;50.474;7.616;2024-01-25T23:32:47;42.0;;;17.4;;
27357;SDS011;14831;50.474;7.616;2024-01-25T23:37:47;42.0;;;17.4;;
27357;SDS011;14831;50.474;7.616;2024-01-25T23:42:47;42.0;;;17.4;;
27357;SDS011;14831;50.474;7.616;2024-01-25T23:47:47;42.0;;;17.4;;
27357;SDS011;14831;50.474;7.616;2024-01-25T23:52:47;42.0;;;17.4;;
27357;SDS011;14831;50.474;7.616;2024-01-25T23:57:47;42.0;;;17.4;;
